createdAt,value
2023-04-25T00:00:07.740Z,7.40
2023-04-25T00:01:10.474Z,7.43
2023-04-25T00:02:12.251Z,7.42
2023-04-25T00:03:15.228Z,7.43
2023-04-25T00:04:17.262Z,7.43
2023-04-25T00:05:20.807Z,7.44
2023-04-25T00:06:27.435Z,7.46
2023-04-25T00:07:30.074Z,7.47
2023-04-25T00:08:31.776Z,7.48
2023-04-25T00:09:34.800Z,7.48
2023-04-25T00:10:36.596Z,7.48
2023-04-25T00:11:39.751Z,7.47
2023-04-25T00:12:42.375Z,7.45
2023-04-25T00:13:45.241Z,7.43
2023-04-25T00:14:47.510Z,7.43
2023-04-25T00:15:51.337Z,7.43
2023-04-25T00:16:53.069Z,7.41
2023-04-25T00:17:55.829Z,7.43
2023-04-25T00:18:57.752Z,7.44
2023-04-25T00:20:00.939Z,7.43
2023-04-25T00:21:03.509Z,7.41
2023-04-25T00:22:07.630Z,7.39
2023-04-25T00:23:11.234Z,7.39
2023-04-25T00:24:13.077Z,7.38
2023-04-25T00:25:15.775Z,7.35
2023-04-25T00:26:17.754Z,7.34
2023-04-25T00:27:20.466Z,7.31
2023-04-25T00:28:22.184Z,7.30
2023-04-25T00:29:24.870Z,7.30
2023-04-25T00:30:26.605Z,7.32
2023-04-25T00:31:30.143Z,7.33
2023-04-25T00:32:32.164Z,7.33
2023-04-25T00:33:35.049Z,7.34
2023-04-25T00:34:37.004Z,7.35
2023-04-25T00:35:40.400Z,7.35
2023-04-25T00:36:42.145Z,7.34
2023-04-25T00:37:46.249Z,7.35
2023-04-25T00:38:48.849Z,7.33
2023-04-25T00:39:51.514Z,7.32
2023-04-25T00:40:53.980Z,7.31
2023-04-25T00:41:56.994Z,7.30
2023-04-25T00:42:58.790Z,7.31
2023-04-25T00:44:01.728Z,7.34
2023-04-25T00:45:06.200Z,7.35
2023-04-25T00:46:09.028Z,7.32
2023-04-25T00:47:12.271Z,7.31
2023-04-25T00:48:16.025Z,7.32
2023-04-25T00:49:17.950Z,7.33
2023-04-25T00:50:20.710Z,7.33
2023-04-25T00:51:23.052Z,7.34
2023-04-25T00:52:25.857Z,7.30
2023-04-25T00:53:29.586Z,7.30
2023-04-25T00:54:33.627Z,7.26
2023-04-25T00:55:37.121Z,7.27
2023-04-25T00:56:40.028Z,7.28
2023-04-25T00:57:41.765Z,7.27
2023-04-25T00:58:44.456Z,7.26
2023-04-25T00:59:47.037Z,7.23
2023-04-25T01:00:51.134Z,7.24
2023-04-25T01:01:52.948Z,7.24
2023-04-25T01:02:55.702Z,7.23
2023-04-25T01:03:58.019Z,7.26
2023-04-25T01:05:00.970Z,7.26
2023-04-25T01:06:02.751Z,7.28
2023-04-25T01:07:05.527Z,7.27
2023-04-25T01:08:07.258Z,7.26
2023-04-25T01:09:11.709Z,7.27
2023-04-25T01:10:13.441Z,7.22
2023-04-25T01:11:16.268Z,7.23
2023-04-25T01:12:18.213Z,7.24
2023-04-25T01:13:20.990Z,7.25
2023-04-25T01:14:22.702Z,7.23
2023-04-25T01:15:25.481Z,7.23
2023-04-25T01:16:27.783Z,7.22
2023-04-25T01:17:32.379Z,7.22
2023-04-25T01:18:34.257Z,7.21
2023-04-25T01:19:37.518Z,7.23
2023-04-25T01:20:39.763Z,7.24
2023-04-25T01:21:43.776Z,7.24
2023-04-25T01:22:45.471Z,7.27
2023-04-25T01:23:48.790Z,7.27
2023-04-25T01:24:50.805Z,7.26
2023-04-25T01:25:53.826Z,7.27
2023-04-25T01:26:57.281Z,7.27
2023-04-25T01:28:00.454Z,7.30
2023-04-25T01:29:02.213Z,7.31
2023-04-25T01:30:05.863Z,7.28
2023-04-25T01:31:07.771Z,7.29
2023-04-25T01:32:10.700Z,7.30
2023-04-25T01:33:13.501Z,7.30
2023-04-25T01:34:16.238Z,7.29
2023-04-25T01:35:17.889Z,7.26
2023-04-25T01:36:20.543Z,7.26
2023-04-25T01:37:23.674Z,7.24
2023-04-25T01:38:26.883Z,7.26
2023-04-25T01:39:28.776Z,7.21
2023-04-25T01:40:31.642Z,7.21
2023-04-25T01:41:35.514Z,7.18
2023-04-25T01:42:39.503Z,7.18
2023-04-25T01:43:41.439Z,7.17
2023-04-25T01:44:44.092Z,7.17
2023-04-25T01:45:45.863Z,7.15
2023-04-25T01:46:48.619Z,7.15
2023-04-25T01:47:50.905Z,7.16
2023-04-25T01:48:53.608Z,7.17
2023-04-25T01:49:55.786Z,7.14
2023-04-25T01:50:58.441Z,7.13
2023-04-25T01:52:00.243Z,7.09
2023-04-25T01:53:04.360Z,7.09
2023-04-25T01:54:06.184Z,7.10
2023-04-25T01:55:09.604Z,7.12
2023-04-25T01:56:11.424Z,7.14
2023-04-25T01:57:14.110Z,7.16
2023-04-25T01:58:15.853Z,7.17
2023-04-25T01:59:18.580Z,7.18
2023-04-25T02:00:20.908Z,7.18
2023-04-25T02:01:23.628Z,7.21
2023-04-25T02:02:25.401Z,7.21
2023-04-25T02:03:28.402Z,7.22
2023-04-25T02:04:30.508Z,7.24
2023-04-25T02:05:37.202Z,7.28
2023-04-25T02:06:39.100Z,7.31
2023-04-25T02:07:41.781Z,7.30
2023-04-25T02:08:44.820Z,7.32
2023-04-25T02:09:47.498Z,7.33
2023-04-25T02:10:49.188Z,7.34
2023-04-25T02:11:51.940Z,7.36
2023-04-25T02:12:53.592Z,7.37
2023-04-25T02:13:56.365Z,7.39
2023-04-25T02:14:58.050Z,7.40
2023-04-25T02:16:00.971Z,7.39
2023-04-25T02:17:02.782Z,7.42
2023-04-25T02:18:07.413Z,7.42
2023-04-25T02:19:09.267Z,7.41
2023-04-25T02:20:12.815Z,7.39
2023-04-25T02:21:14.476Z,7.38
2023-04-25T02:22:17.172Z,7.39
2023-04-25T02:23:20.199Z,7.40
2023-04-25T02:24:24.308Z,7.38
2023-04-25T02:25:26.345Z,7.38
2023-04-25T02:26:28.999Z,7.41
2023-04-25T02:27:30.721Z,7.43
2023-04-25T02:28:36.402Z,7.45
2023-04-25T02:29:38.146Z,7.44
2023-04-25T02:30:40.916Z,7.44
2023-04-25T02:31:42.769Z,7.46
2023-04-25T02:32:45.787Z,7.46
2023-04-25T02:33:48.749Z,7.44
2023-04-25T02:34:51.744Z,7.43
2023-04-25T02:35:53.421Z,7.43
2023-04-25T02:36:56.144Z,7.44
2023-04-25T02:37:57.832Z,7.42
2023-04-25T02:39:01.249Z,7.41
2023-04-25T02:40:05.331Z,7.43
2023-04-25T02:41:08.126Z,7.42
2023-04-25T02:42:09.851Z,7.42
2023-04-25T02:43:12.647Z,7.42
2023-04-25T02:44:14.368Z,7.41
2023-04-25T02:45:17.032Z,7.43
2023-04-25T02:46:25.510Z,7.43
2023-04-25T02:47:35.242Z,7.43
2023-04-25T02:48:36.956Z,7.44
2023-04-25T02:49:39.625Z,7.42
2023-04-25T02:50:42.291Z,7.42
2023-04-25T02:51:43.996Z,7.42
2023-04-25T02:52:47.339Z,7.42
2023-04-25T02:53:49.207Z,7.42
2023-04-25T02:54:52.134Z,7.38
2023-04-25T02:55:55.512Z,7.37
2023-04-25T02:56:58.228Z,7.38
2023-04-25T02:58:00.039Z,7.36
2023-04-25T02:59:02.768Z,7.36
2023-04-25T03:00:06.053Z,7.35
2023-04-25T03:01:08.785Z,7.32
2023-04-25T03:02:10.962Z,7.31
2023-04-25T03:03:13.921Z,7.28
2023-04-25T03:04:15.993Z,7.24
2023-04-25T03:05:18.783Z,7.23
2023-04-25T03:06:20.859Z,7.21
2023-04-25T03:07:23.549Z,7.17
2023-04-25T03:08:26.152Z,7.13
2023-04-25T03:09:28.991Z,7.13
2023-04-25T03:10:30.676Z,7.11
2023-04-25T03:11:34.706Z,7.09
2023-04-25T03:12:36.541Z,7.08
2023-04-25T03:13:39.182Z,7.09
2023-04-25T03:14:40.877Z,7.08
2023-04-25T03:15:43.558Z,7.08
2023-04-25T03:16:45.558Z,7.10
2023-04-25T03:17:48.467Z,7.09
2023-04-25T03:18:51.369Z,7.10
2023-04-25T03:19:54.121Z,7.11
2023-04-25T03:20:55.904Z,7.11
2023-04-25T03:21:58.576Z,7.10
2023-04-25T03:23:00.358Z,7.13
2023-04-25T03:24:04.647Z,7.10
2023-04-25T03:25:07.811Z,7.10
2023-04-25T03:26:10.679Z,7.09
2023-04-25T03:27:13.756Z,7.08
2023-04-25T03:28:16.636Z,7.09
2023-04-25T03:29:18.650Z,7.08
2023-04-25T03:30:21.393Z,7.08
2023-04-25T03:31:23.378Z,7.04
2023-04-25T03:32:27.169Z,7.03
2023-04-25T03:33:30.087Z,7.04
2023-04-25T03:34:31.848Z,7.02
2023-04-25T03:35:34.601Z,7.03
2023-04-25T03:36:38.701Z,7.02
2023-04-25T03:37:41.629Z,7.02
2023-04-25T03:38:44.466Z,7.04
2023-04-25T03:39:46.178Z,7.05
2023-04-25T03:40:48.864Z,7.04
2023-04-25T03:41:50.645Z,7.04
2023-04-25T03:42:54.687Z,7.04
2023-04-25T03:43:56.370Z,7.05
2023-04-25T03:44:58.988Z,7.06
2023-04-25T03:46:01.106Z,7.09
2023-04-25T03:47:03.854Z,7.11
2023-04-25T03:48:06.216Z,7.16
2023-04-25T03:49:09.011Z,7.17
2023-04-25T03:50:11.318Z,7.19
2023-04-25T03:51:14.049Z,7.18
2023-04-25T03:52:15.828Z,7.17
2023-04-25T03:53:18.516Z,7.17
2023-04-25T03:54:20.337Z,7.16
2023-04-25T03:55:22.999Z,7.14
2023-04-25T03:56:24.817Z,7.13
2023-04-25T03:57:27.649Z,7.13
2023-04-25T03:58:30.708Z,7.13
2023-04-25T03:59:33.454Z,7.11
2023-04-25T04:00:36.563Z,7.09
2023-04-25T04:01:38.278Z,7.10
2023-04-25T04:02:43.125Z,7.10
2023-04-25T04:03:46.542Z,7.10
2023-04-25T04:04:49.622Z,7.13
2023-04-25T04:05:51.849Z,7.13
2023-04-25T04:06:54.860Z,7.14
2023-04-25T04:07:56.642Z,7.14
2023-04-25T04:08:59.393Z,7.15
2023-04-25T04:10:01.118Z,7.15
2023-04-25T04:11:03.891Z,7.16
2023-04-25T04:12:06.060Z,7.14
2023-04-25T04:13:08.750Z,7.14
2023-04-25T04:14:11.848Z,7.13
2023-04-25T04:15:14.720Z,7.13
2023-04-25T04:16:16.511Z,7.14
2023-04-25T04:17:19.247Z,7.14
2023-04-25T04:18:21.034Z,7.16
2023-04-25T04:19:23.737Z,7.17
2023-04-25T04:20:25.484Z,7.18
2023-04-25T04:21:28.729Z,7.20
2023-04-25T04:22:30.497Z,7.20
2023-04-25T04:23:33.185Z,7.18
2023-04-25T04:24:35.076Z,7.18
2023-04-25T04:25:37.914Z,7.16
2023-04-25T04:26:39.814Z,7.15
2023-04-25T04:27:42.522Z,7.14
2023-04-25T04:28:47.340Z,7.12
2023-04-25T04:29:53.323Z,7.11
2023-04-25T04:30:55.101Z,7.08
2023-04-25T04:31:57.863Z,7.07
2023-04-25T04:32:59.747Z,7.06
2023-04-25T04:34:02.753Z,7.06
2023-04-25T04:35:05.365Z,7.06
2023-04-25T04:36:09.561Z,7.06
2023-04-25T04:37:11.474Z,7.05
2023-04-25T04:38:15.965Z,7.04
2023-04-25T04:39:18.073Z,7.04
2023-04-25T04:40:21.523Z,7.02
2023-04-25T04:41:23.248Z,7.05
2023-04-25T04:42:26.303Z,7.01
2023-04-25T04:43:29.525Z,7.01
2023-04-25T04:44:33.631Z,7.01
2023-04-25T04:45:37.769Z,7.00
2023-04-25T04:46:43.120Z,6.98
2023-04-25T04:47:46.856Z,6.96
2023-04-25T04:48:48.617Z,6.96
2023-04-25T04:49:51.336Z,6.93
2023-04-25T04:50:53.020Z,6.94
2023-04-25T04:51:58.402Z,6.92
2023-04-25T04:53:01.369Z,6.91
2023-04-25T04:54:04.607Z,6.87
2023-04-25T04:55:07.416Z,6.87
2023-04-25T04:56:10.094Z,6.86
2023-04-25T04:57:11.763Z,6.85
2023-04-25T04:58:14.501Z,6.85
2023-04-25T04:59:16.202Z,6.84
2023-04-25T05:00:19.204Z,6.84
2023-04-25T05:01:23.086Z,6.84
2023-04-25T05:02:26.056Z,6.83
2023-04-25T05:03:28.314Z,6.80
2023-04-25T05:04:31.360Z,6.78
2023-04-25T05:05:33.222Z,6.77
2023-04-25T05:06:35.887Z,6.74
2023-04-25T05:07:38.567Z,6.74
2023-04-25T05:08:40.779Z,6.71
2023-04-25T05:09:43.496Z,6.69
2023-04-25T05:10:46.208Z,6.68
2023-04-25T05:11:47.964Z,6.65
2023-04-25T05:12:50.696Z,6.65
2023-04-25T05:13:53.633Z,6.64
2023-04-25T05:14:56.496Z,6.62
2023-04-25T05:15:58.173Z,6.61
2023-04-25T05:17:02.475Z,6.61
2023-04-25T05:18:04.616Z,6.58
2023-04-25T05:19:07.267Z,6.57
2023-04-25T05:20:10.247Z,6.57
2023-04-25T05:21:12.984Z,6.56
2023-04-25T05:22:14.710Z,6.55
2023-04-25T05:23:17.403Z,6.55
2023-04-25T05:24:19.197Z,6.52
2023-04-25T05:25:21.877Z,6.48
2023-04-25T05:26:23.553Z,6.45
2023-04-25T05:27:26.286Z,6.46
2023-04-25T05:28:27.970Z,6.43
2023-04-25T05:29:30.641Z,6.40
2023-04-25T05:30:32.346Z,6.43
2023-04-25T05:31:35.123Z,6.43
2023-04-25T05:32:38.303Z,6.46
2023-04-25T05:33:41.140Z,6.46
2023-04-25T05:34:43.078Z,6.51
2023-04-25T05:35:45.842Z,6.50
2023-04-25T05:36:49.387Z,6.50
2023-04-25T05:37:52.035Z,6.54
2023-04-25T05:38:53.952Z,6.55
2023-04-25T05:39:56.647Z,6.59
2023-04-25T05:40:58.451Z,6.62
2023-04-25T05:42:02.422Z,6.66
2023-04-25T05:43:04.131Z,6.67
2023-04-25T05:44:06.852Z,6.68
2023-04-25T05:45:09.012Z,6.69
2023-04-25T05:46:11.699Z,6.63
2023-04-25T05:47:13.457Z,6.60
2023-04-25T05:48:17.484Z,6.61
2023-04-25T05:49:19.772Z,6.63
2023-04-25T05:50:22.511Z,6.66
2023-04-25T05:51:24.301Z,6.67
2023-04-25T05:52:27.704Z,6.62
2023-04-25T05:53:30.837Z,6.66
2023-04-25T05:54:33.708Z,6.67
2023-04-25T05:55:35.446Z,6.69
2023-04-25T05:56:38.124Z,6.68
2023-04-25T05:57:42.377Z,6.71
2023-04-25T05:58:45.241Z,6.64
2023-04-25T05:59:47.157Z,6.69
2023-04-25T06:00:49.884Z,6.73
2023-04-25T06:01:52.654Z,6.77
2023-04-25T06:02:55.466Z,6.79
2023-04-25T06:03:59.078Z,6.86
2023-04-25T06:05:04.677Z,6.88
2023-04-25T06:06:06.866Z,6.94
2023-04-25T06:07:09.745Z,6.94
2023-04-25T06:08:11.580Z,6.98
2023-04-25T06:09:14.621Z,7.01
2023-04-25T06:10:16.469Z,7.05
2023-04-25T06:11:19.144Z,7.11
2023-04-25T06:12:20.847Z,7.21
2023-04-25T06:13:23.773Z,7.31
2023-04-25T06:14:26.692Z,7.39
2023-04-25T06:15:30.587Z,7.46
2023-04-25T06:16:32.433Z,7.54
2023-04-25T06:17:35.362Z,7.60
2023-04-25T06:18:37.240Z,7.59
2023-04-25T06:19:41.661Z,7.65
2023-04-25T06:20:44.420Z,7.68
2023-04-25T06:21:46.122Z,7.60
2023-04-25T06:22:48.929Z,7.61
2023-04-25T06:23:51.029Z,7.53
2023-04-25T06:24:54.153Z,7.54
2023-04-25T06:25:55.854Z,7.47
2023-04-25T06:26:58.604Z,7.45
2023-04-25T06:28:00.694Z,7.45
2023-04-25T06:29:03.452Z,7.46
2023-04-25T06:30:06.448Z,7.48
2023-04-25T06:31:09.194Z,7.49
2023-04-25T06:32:10.896Z,7.48
2023-04-25T06:33:13.621Z,7.45
2023-04-25T06:34:16.167Z,7.40
2023-04-25T06:35:20.227Z,7.45
2023-04-25T06:36:25.847Z,7.46
2023-04-25T06:37:27.650Z,7.50
2023-04-25T06:38:30.408Z,7.56
2023-04-25T06:39:32.589Z,7.55
2023-04-25T06:40:35.279Z,7.60
2023-04-25T06:41:37.963Z,7.64
2023-04-25T06:42:39.661Z,7.71
2023-04-25T06:43:42.343Z,7.78
2023-04-25T06:44:45.110Z,7.87
2023-04-25T06:45:48.659Z,7.94
2023-04-25T06:46:51.705Z,8.04
2023-04-25T06:47:53.536Z,8.12
2023-04-25T06:48:56.332Z,8.18
2023-04-25T06:49:57.991Z,8.27
2023-04-25T06:51:02.066Z,8.36
2023-04-25T06:52:04.193Z,8.46
2023-04-25T06:53:06.913Z,8.55
2023-04-25T06:54:08.637Z,8.62
2023-04-25T06:55:11.547Z,8.71
2023-04-25T06:56:13.241Z,8.80
2023-04-25T06:57:15.944Z,8.83
2023-04-25T06:58:20.696Z,8.86
2023-04-25T06:59:22.395Z,8.90
2023-04-25T07:00:25.262Z,8.95
2023-04-25T07:01:27.140Z,9.02
2023-04-25T07:02:29.996Z,9.09
2023-04-25T07:03:32.045Z,9.11
2023-04-25T07:04:35.307Z,9.16
2023-04-25T07:05:37.151Z,9.15
2023-04-25T07:06:43.599Z,9.17
2023-04-25T07:07:46.300Z,9.23
2023-04-25T07:08:48.026Z,9.27
2023-04-25T07:09:51.085Z,9.32
2023-04-25T07:10:52.796Z,9.36
2023-04-25T07:11:55.521Z,9.42
2023-04-25T07:12:58.186Z,9.47
2023-04-25T07:14:00.983Z,9.49
2023-04-25T07:15:06.849Z,9.49
2023-04-25T07:16:08.609Z,9.49
2023-04-25T07:17:11.379Z,9.46
2023-04-25T07:18:13.170Z,9.47
2023-04-25T07:19:15.949Z,9.40
2023-04-25T07:20:17.774Z,9.39
2023-04-25T07:21:20.417Z,9.41
2023-04-25T07:22:23.564Z,9.39
2023-04-25T07:23:26.316Z,9.42
2023-04-25T07:24:28.013Z,9.43
2023-04-25T07:25:31.688Z,9.49
2023-04-25T07:26:34.186Z,9.52
2023-04-25T07:27:36.835Z,9.53
2023-04-25T07:28:38.540Z,9.56
2023-04-25T07:29:41.245Z,9.59
2023-04-25T07:30:43.057Z,9.57
2023-04-25T07:31:45.811Z,9.54
2023-04-25T07:32:47.653Z,9.49
2023-04-25T07:33:50.591Z,9.45
2023-04-25T07:34:52.282Z,9.45
2023-04-25T07:35:55.169Z,9.28
2023-04-25T07:36:57.866Z,9.33
2023-04-25T07:38:01.045Z,9.38
2023-04-25T07:39:04.232Z,9.39
2023-04-25T07:40:08.886Z,9.44
2023-04-25T07:41:10.671Z,9.46
2023-04-25T07:42:13.655Z,9.45
2023-04-25T07:43:17.727Z,9.45
2023-04-25T07:44:19.450Z,9.50
2023-04-25T07:45:22.124Z,9.59
2023-04-25T07:46:23.927Z,9.65
2023-04-25T07:47:26.823Z,9.74
2023-04-25T07:48:28.568Z,9.72
2023-04-25T07:49:31.189Z,9.79
2023-04-25T07:50:32.985Z,9.83
2023-04-25T07:51:35.694Z,9.87
2023-04-25T07:52:37.446Z,9.87
2023-04-25T07:53:41.914Z,9.88
2023-04-25T07:54:43.608Z,9.83
2023-04-25T07:55:46.260Z,9.81
2023-04-25T07:56:52.686Z,9.80
2023-04-25T07:57:56.523Z,9.79
2023-04-25T07:58:58.207Z,9.75
2023-04-25T08:00:01.025Z,9.83
2023-04-25T08:01:02.899Z,9.86
2023-04-25T08:02:05.571Z,9.90
2023-04-25T08:03:08.902Z,9.91
2023-04-25T08:04:12.407Z,10.01
2023-04-25T08:05:17.147Z,10.07
2023-04-25T08:06:20.719Z,10.10
2023-04-25T08:07:23.538Z,10.06
2023-04-25T08:08:25.289Z,10.01
2023-04-25T08:09:30.282Z,10.01
2023-04-25T08:10:31.988Z,9.87
2023-04-25T08:11:34.648Z,9.80
2023-04-25T08:12:36.433Z,9.73
2023-04-25T08:13:39.131Z,9.68
2023-04-25T08:14:40.830Z,9.65
2023-04-25T08:15:43.565Z,9.64
2023-04-25T08:16:45.461Z,9.68
2023-04-25T08:17:48.178Z,9.68
2023-04-25T08:18:51.058Z,9.69
2023-04-25T08:19:53.849Z,9.75
2023-04-25T08:20:55.569Z,9.84
2023-04-25T08:21:58.460Z,9.91
2023-04-25T08:23:00.173Z,10.04
2023-04-25T08:24:05.636Z,10.13
2023-04-25T08:25:10.132Z,10.22
2023-04-25T08:26:12.876Z,10.30
2023-04-25T08:27:14.633Z,10.34
2023-04-25T08:28:17.357Z,10.39
2023-04-25T08:29:19.122Z,10.39
2023-04-25T08:30:22.196Z,10.40
2023-04-25T08:31:24.117Z,10.38
2023-04-25T08:32:28.034Z,10.39
2023-04-25T08:33:32.203Z,10.38
2023-04-25T08:34:34.030Z,10.38
2023-04-25T08:35:36.746Z,10.39
2023-04-25T08:36:40.170Z,10.41
2023-04-25T08:37:43.136Z,10.43
2023-04-25T08:38:45.872Z,10.46
2023-04-25T08:39:49.251Z,10.49
2023-04-25T08:40:53.482Z,10.56
2023-04-25T08:41:55.456Z,10.69
2023-04-25T08:42:59.766Z,10.82
2023-04-25T08:44:03.120Z,10.96
2023-04-25T08:45:07.495Z,11.07
2023-04-25T08:46:09.230Z,11.16
2023-04-25T08:47:11.966Z,11.21
2023-04-25T08:48:16.924Z,11.19
2023-04-25T08:49:19.874Z,11.24
2023-04-25T08:50:24.516Z,11.26
2023-04-25T08:51:26.856Z,11.16
2023-04-25T08:52:31.202Z,11.17
2023-04-25T08:53:36.185Z,11.16
2023-04-25T08:54:40.373Z,11.07
2023-04-25T08:55:44.609Z,11.01
2023-04-25T08:56:50.039Z,10.92
2023-04-25T08:57:53.013Z,10.88
2023-04-25T08:58:56.045Z,10.94
2023-04-25T08:59:59.333Z,10.93
2023-04-25T09:01:02.065Z,10.98
2023-04-25T09:02:04.142Z,11.03
2023-04-25T09:03:07.658Z,11.01
2023-04-25T09:04:09.837Z,11.08
2023-04-25T09:05:14.797Z,11.06
2023-04-25T09:06:17.891Z,11.14
2023-04-25T09:07:22.336Z,11.17
2023-04-25T09:08:25.162Z,11.22
2023-04-25T09:09:27.895Z,11.23
2023-04-25T09:11:32.683Z,11.43
2023-04-25T09:12:37.320Z,11.45
2023-04-25T09:13:39.193Z,11.49
2023-04-25T09:14:43.370Z,11.44
2023-04-25T09:15:50.867Z,11.40
2023-04-25T09:17:00.522Z,11.38
2023-04-25T09:18:03.473Z,11.32
2023-04-25T09:19:06.518Z,11.22
2023-04-25T09:20:10.665Z,11.22
2023-04-25T09:21:15.111Z,11.12
2023-04-25T09:22:19.311Z,11.14
2023-04-25T09:23:22.704Z,11.10
2023-04-25T09:24:35.020Z,11.12
2023-04-25T09:25:39.866Z,11.13
2023-04-25T09:26:42.593Z,11.13
2023-04-25T09:27:52.744Z,11.14
2023-04-25T09:29:07.689Z,11.23
2023-04-25T09:30:10.187Z,11.23
2023-04-25T09:31:13.367Z,11.12
2023-04-25T09:32:17.948Z,11.07
2023-04-25T09:33:21.516Z,11.06
2023-04-25T09:34:27.858Z,11.13
2023-04-25T09:35:29.682Z,11.05
2023-04-25T09:36:33.614Z,11.06
2023-04-25T09:37:36.366Z,11.10
2023-04-25T09:38:43.314Z,11.12
2023-04-25T09:39:45.923Z,11.11
2023-04-25T09:40:50.636Z,10.97
2023-04-25T09:41:55.175Z,10.97
2023-04-25T09:43:00.200Z,10.93
2023-04-25T09:44:03.710Z,10.93
2023-04-25T09:45:06.373Z,10.97
2023-04-25T09:46:10.898Z,10.98
2023-04-25T09:47:14.771Z,10.97
2023-04-25T09:48:20.901Z,10.94
2023-04-25T09:49:23.627Z,11.00
2023-04-25T09:50:26.623Z,10.98
2023-04-25T09:51:28.655Z,11.00
2023-04-25T09:52:31.480Z,10.99
2023-04-25T09:53:33.717Z,10.90
2023-04-25T09:54:36.526Z,10.88
2023-04-25T09:55:40.008Z,10.86
2023-04-25T09:56:42.388Z,10.83
2023-04-25T09:57:47.354Z,10.86
2023-04-25T09:58:52.573Z,10.81
2023-04-25T09:59:56.487Z,10.73
2023-04-25T10:01:01.288Z,10.66
2023-04-25T10:02:04.653Z,10.58
2023-04-25T10:03:07.815Z,10.46
2023-04-25T10:04:12.182Z,10.39
2023-04-25T10:05:15.655Z,10.30
2023-04-25T10:06:56.528Z,10.16
2023-04-25T10:07:58.615Z,9.93
2023-04-25T10:09:01.638Z,10.03
2023-04-25T10:10:08.564Z,10.03
2023-04-25T10:11:11.335Z,10.09
2023-04-25T10:12:13.421Z,10.12
2023-04-25T10:13:16.337Z,10.13
2023-04-25T10:14:21.379Z,10.06
2023-04-25T10:15:23.349Z,10.09
2023-04-25T10:16:27.056Z,10.08
2023-04-25T10:17:29.956Z,10.08
2023-04-25T10:18:32.475Z,10.16
2023-04-25T10:19:35.371Z,10.16
2023-04-25T10:20:38.063Z,10.22
2023-04-25T10:21:46.080Z,10.19
2023-04-25T10:22:49.796Z,10.23
2023-04-25T10:23:52.512Z,10.27
2023-04-25T10:24:55.894Z,10.32
2023-04-25T10:25:57.733Z,10.36
2023-04-25T10:27:00.706Z,10.39
2023-04-25T10:28:05.744Z,10.45
2023-04-25T10:29:07.549Z,10.52
2023-04-25T10:30:15.171Z,10.58
2023-04-25T10:31:17.496Z,10.65
2023-04-25T10:32:20.516Z,10.74
2023-04-25T10:33:31.056Z,10.83
2023-04-25T10:34:41.691Z,10.88
2023-04-25T10:35:44.401Z,10.94
2023-04-25T10:36:52.321Z,10.99
2023-04-25T10:38:01.290Z,11.01
2023-04-25T10:39:08.373Z,10.99
2023-04-25T10:40:11.140Z,10.98
2023-04-25T10:41:15.097Z,10.99
2023-04-25T10:42:18.664Z,10.98
2023-04-25T10:43:37.313Z,10.94
2023-04-25T10:44:41.008Z,10.90
2023-04-25T10:45:53.625Z,10.92
2023-04-25T10:46:58.077Z,10.90
2023-04-25T10:47:59.861Z,10.91
2023-04-25T10:49:04.030Z,10.91
2023-04-25T10:50:07.156Z,10.90
2023-04-25T10:51:10.638Z,10.91
2023-04-25T10:52:18.499Z,10.85
2023-04-25T10:53:20.149Z,10.87
2023-04-25T10:54:26.612Z,10.83
2023-04-25T10:55:29.277Z,10.88
2023-04-25T10:56:32.577Z,10.78
2023-04-25T10:57:39.120Z,10.73
2023-04-25T10:58:43.860Z,10.77
2023-04-25T10:59:46.834Z,10.79
2023-04-25T11:01:58.586Z,10.85
2023-04-25T11:03:01.076Z,10.92
2023-04-25T11:04:04.344Z,10.94
2023-04-25T11:05:08.340Z,11.01
2023-04-25T11:06:17.446Z,11.06
2023-04-25T11:07:28.056Z,11.14
2023-04-25T11:08:39.223Z,11.23
2023-04-25T11:09:42.574Z,11.31
2023-04-25T11:10:46.359Z,11.38
2023-04-25T11:11:55.041Z,11.46
2023-04-25T11:12:58.274Z,11.50
2023-04-25T11:13:59.960Z,11.55
2023-04-25T11:15:05.241Z,11.59
2023-04-25T11:16:12.910Z,11.62
2023-04-25T11:17:17.582Z,11.63
2023-04-25T11:18:21.664Z,11.66
2023-04-25T11:19:23.763Z,11.69
2023-04-25T11:20:29.588Z,11.69
2023-04-25T11:21:32.835Z,11.68
2023-04-25T11:22:35.829Z,11.64
2023-04-25T11:23:37.712Z,11.64
2023-04-25T11:24:40.505Z,11.64
2023-04-25T11:25:42.272Z,11.64
2023-04-25T11:26:45.135Z,11.63
2023-04-25T11:27:54.574Z,11.64
2023-04-25T11:29:00.439Z,11.61
2023-04-25T11:30:13.028Z,11.60
2023-04-25T11:31:16.227Z,11.54
2023-04-25T11:32:21.504Z,11.47
2023-04-25T11:33:26.024Z,11.42
2023-04-25T11:34:27.846Z,11.39
2023-04-25T11:35:30.534Z,11.35
2023-04-25T11:36:32.277Z,11.29
2023-04-25T11:37:35.267Z,11.26
2023-04-25T11:38:37.978Z,11.25
2023-04-25T11:39:39.679Z,11.25
2023-04-25T11:40:42.575Z,11.23
2023-04-25T11:41:44.761Z,11.22
2023-04-25T11:42:49.280Z,11.24
2023-04-25T11:43:52.891Z,11.24
2023-04-25T11:44:55.771Z,11.30
2023-04-25T11:45:58.512Z,11.31
2023-04-25T11:47:00.429Z,11.29
2023-04-25T11:48:05.794Z,11.22
2023-04-25T11:49:07.552Z,11.21
2023-04-25T11:50:11.455Z,11.25
2023-04-25T11:51:13.248Z,11.27
2023-04-25T11:52:15.991Z,11.25
2023-04-25T11:53:20.074Z,11.26
2023-04-25T11:54:22.432Z,11.20
2023-04-25T11:55:25.188Z,11.20
2023-04-25T11:56:26.894Z,11.22
2023-04-25T11:57:29.835Z,11.24
2023-04-25T11:58:32.657Z,11.18
2023-04-25T11:59:34.432Z,11.21
2023-04-25T12:00:37.288Z,11.25
2023-04-25T12:01:41.000Z,11.19
2023-04-25T12:02:44.932Z,11.21
2023-04-25T12:03:48.474Z,11.21
2023-04-25T12:04:51.653Z,11.19
2023-04-25T12:05:54.849Z,11.16
2023-04-25T12:06:57.410Z,11.13
2023-04-25T12:08:00.415Z,11.09
2023-04-25T12:09:04.888Z,11.08
2023-04-25T12:10:09.448Z,11.02
2023-04-25T12:11:22.860Z,10.89
2023-04-25T12:12:29.416Z,10.83
2023-04-25T12:13:33.856Z,10.86
2023-04-25T12:14:37.045Z,10.87
2023-04-25T12:15:42.968Z,10.91
2023-04-25T12:16:46.081Z,10.88
2023-04-25T12:17:49.933Z,10.85
2023-04-25T12:18:54.459Z,10.91
2023-04-25T12:19:57.146Z,10.99
2023-04-25T12:21:01.046Z,11.06
2023-04-25T12:22:04.885Z,11.10
2023-04-25T12:23:09.475Z,11.03
2023-04-25T12:24:12.723Z,11.06
2023-04-25T12:25:16.106Z,11.12
2023-04-25T12:26:21.820Z,11.17
2023-04-25T12:27:28.324Z,11.22
2023-04-25T12:28:34.135Z,11.11
2023-04-25T12:30:59.727Z,11.09
2023-04-25T12:32:03.523Z,11.05
2023-04-25T12:33:05.322Z,11.08
2023-04-25T12:34:09.458Z,11.05
2023-04-25T12:35:12.124Z,11.04
2023-04-25T12:36:14.578Z,11.07
2023-04-25T12:37:17.290Z,11.13
2023-04-25T12:38:23.145Z,11.22
2023-04-25T12:39:27.118Z,11.26
2023-04-25T12:40:29.825Z,11.33
2023-04-25T12:41:31.541Z,11.34
2023-04-25T12:42:34.247Z,11.36
2023-04-25T12:43:37.427Z,11.40
2023-04-25T12:44:40.273Z,11.52
2023-04-25T12:45:43.021Z,11.70
2023-04-25T12:46:46.192Z,11.87
2023-04-25T12:47:48.018Z,12.02
2023-04-25T12:48:50.950Z,12.06
2023-04-25T12:49:55.194Z,12.14
2023-04-25T12:50:56.881Z,12.21
2023-04-25T12:51:59.564Z,12.32
2023-04-25T12:53:01.625Z,12.43
2023-04-25T12:54:05.946Z,12.58
2023-04-25T12:55:08.920Z,12.75
2023-04-25T12:56:10.930Z,12.84
2023-04-25T12:57:13.809Z,12.84
2023-04-25T12:58:15.960Z,12.67
2023-04-25T12:59:18.869Z,12.69
2023-04-25T13:00:21.908Z,12.74
2023-04-25T13:01:25.059Z,12.64
2023-04-25T13:02:27.112Z,12.62
2023-04-25T13:03:30.134Z,12.60
2023-04-25T13:04:32.374Z,12.55
2023-04-25T13:05:36.597Z,12.45
2023-04-25T13:06:38.285Z,12.40
2023-04-25T13:07:42.159Z,12.38
2023-04-25T13:08:44.979Z,12.26
2023-04-25T13:09:47.638Z,12.24
2023-04-25T13:10:49.417Z,12.20
2023-04-25T13:11:53.722Z,12.20
2023-04-25T13:12:57.964Z,12.10
2023-04-25T13:14:01.329Z,11.99
2023-04-25T13:15:03.114Z,11.93
2023-04-25T13:16:06.834Z,11.91
2023-04-25T13:17:09.485Z,11.83
2023-04-25T13:18:11.440Z,11.72
2023-04-25T13:19:14.428Z,11.68
2023-04-25T13:20:18.071Z,11.65
2023-04-25T13:21:22.128Z,11.62
2023-04-25T13:22:23.900Z,11.60
2023-04-25T13:23:28.458Z,11.57
2023-04-25T13:24:31.146Z,11.53
2023-04-25T13:25:33.002Z,11.45
2023-04-25T13:26:35.782Z,11.42
2023-04-25T13:27:41.303Z,11.39
2023-04-25T13:28:44.903Z,11.29
2023-04-25T13:29:46.967Z,11.23
2023-04-25T13:30:49.967Z,11.29
2023-04-25T13:31:52.667Z,11.30
2023-04-25T13:32:57.282Z,11.35
2023-04-25T13:34:00.136Z,11.44
2023-04-25T13:35:03.412Z,11.43
2023-04-25T13:36:08.495Z,11.44
2023-04-25T13:37:11.589Z,11.55
2023-04-25T13:38:14.372Z,11.65
2023-04-25T13:39:17.088Z,11.72
2023-04-25T13:40:19.770Z,11.83
2023-04-25T13:41:22.408Z,11.90
2023-04-25T13:42:24.574Z,11.95
2023-04-25T13:43:28.010Z,11.99
2023-04-25T13:44:29.905Z,11.97
2023-04-25T13:45:33.655Z,11.97
2023-04-25T13:46:46.257Z,11.93
2023-04-25T13:47:50.296Z,11.94
2023-04-25T13:48:57.717Z,11.90
2023-04-25T13:50:04.015Z,11.86
2023-04-25T13:51:07.220Z,11.79
2023-04-25T13:52:08.992Z,11.72
2023-04-25T13:53:13.243Z,11.68
2023-04-25T13:54:15.977Z,11.59